sensor_id;sensor_type;location;lat;lon;timestamp;P1;durP1;ratioP1;P2;durP2;ratioP2
4011;SDS011;2020;48.682;9.024;2023-04-25T00:00:15;3.77;;;1.83;;
4011;SDS011;2020;48.682;9.024;2023-04-25T00:02:41;2.07;;;1.97;;
4011;SDS011;2020;48.682;9.024;2023-04-25T00:05:07;2.43;;;2.23;;
4011;SDS011;2020;48.682;9.024;2023-04-25T00:07:33;1.00;;;1.00;;
4011;SDS011;2020;48.682;9.024;2023-04-25T00:09:58;1.13;;;1.13;;
4011;SDS011;2020;48.682;9.024;2023-04-25T00:12:24;2.13;;;1.73;;
4011;SDS011;2020;48.682;9.024;2023-04-25T00:14:49;1.43;;;1.33;;
4011;SDS011;2020;48.682;9.024;2023-04-25T00:17:15;1.47;;;1.37;;
4011;SDS011;2020;48.682;9.024;2023-04-25T00:19:41;1.60;;;1.50;;
4011;SDS011;2020;48.682;9.024;2023-04-25T00:22:07;1.23;;;1.10;;
4011;SDS011;2020;48.682;9.024;2023-04-25T00:24:32;1.30;;;1.20;;
4011;SDS011;2020;48.682;9.024;2023-04-25T00:26:58;1.37;;;1.27;;
4011;SDS011;2020;48.682;9.024;2023-04-25T00:29:23;1.40;;;1.40;;
4011;SDS011;2020;48.682;9.024;2023-04-25T00:31:48;1.20;;;1.20;;
4011;SDS011;2020;48.682;9.024;2023-04-25T00:34:13;1.03;;;1.03;;
4011;SDS011;2020;48.682;9.024;2023-04-25T00:36:39;1.40;;;1.30;;
4011;SDS011;2020;48.682;9.024;2023-04-25T00:39:04;1.03;;;1.03;;
4011;SDS011;2020;48.682;9.024;2023-04-25T00:41:29;1.07;;;1.07;;
4011;SDS011;2020;48.682;9.024;2023-04-25T00:43:55;1.30;;;1.30;;
4011;SDS011;2020;48.682;9.024;2023-04-25T00:46:21;1.37;;;1.27;;
4011;SDS011;2020;48.682;9.024;2023-04-25T00:48:47;1.27;;;1.27;;
4011;SDS011;2020;48.682;9.024;2023-04-25T00:51:21;2.10;;;1.53;;
4011;SDS011;2020;48.682;9.024;2023-04-25T00:53:47;0.90;;;0.90;;
4011;SDS011;2020;48.682;9.024;2023-04-25T00:56:14;1.10;;;1.10;;
4011;SDS011;2020;48.682;9.024;2023-04-25T00:58:40;1.17;;;1.17;;
4011;SDS011;2020;48.682;9.024;2023-04-25T01:01:07;1.77;;;1.73;;
4011;SDS011;2020;48.682;9.024;2023-04-25T01:03:33;1.67;;;1.67;;
4011;SDS011;2020;48.682;9.024;2023-04-25T01:06:01;1.10;;;1.10;;
4011;SDS011;2020;48.682;9.024;2023-04-25T01:08:27;1.13;;;1.13;;
4011;SDS011;2020;48.682;9.024;2023-04-25T01:10:52;1.20;;;1.20;;
4011;SDS011;2020;48.682;9.024;2023-04-25T01:13:18;1.37;;;1.27;;
4011;SDS011;2020;48.682;9.024;2023-04-25T01:15:43;0.97;;;0.97;;
4011;SDS011;2020;48.682;9.024;2023-04-25T01:18:09;0.90;;;0.90;;
4011;SDS011;2020;48.682;9.024;2023-04-25T01:20:34;1.60;;;1.50;;
4011;SDS011;2020;48.682;9.024;2023-04-25T01:23:02;1.20;;;1.20;;
4011;SDS011;2020;48.682;9.024;2023-04-25T01:25:28;1.30;;;1.20;;
4011;SDS011;2020;48.682;9.024;2023-04-25T01:27:54;1.07;;;1.07;;
4011;SDS011;2020;48.682;9.024;2023-04-25T01:30:20;1.03;;;1.03;;
4011;SDS011;2020;48.682;9.024;2023-04-25T01:32:46;1.10;;;1.10;;
4011;SDS011;2020;48.682;9.024;2023-04-25T01:35:13;1.20;;;1.13;;
4011;SDS011;2020;48.682;9.024;2023-04-25T01:37:38;1.23;;;1.23;;
4011;SDS011;2020;48.682;9.024;2023-04-25T01:40:08;1.00;;;1.00;;
4011;SDS011;2020;48.682;9.024;2023-04-25T01:42:35;1.53;;;1.10;;
4011;SDS011;2020;48.682;9.024;2023-04-25T01:45:02;0.93;;;0.93;;
4011;SDS011;2020;48.682;9.024;2023-04-25T01:47:28;1.20;;;1.20;;
4011;SDS011;2020;48.682;9.024;2023-04-25T01:49:53;3.03;;;1.30;;
4011;SDS011;2020;48.682;9.024;2023-04-25T01:52:18;1.00;;;1.00;;
4011;SDS011;2020;48.682;9.024;2023-04-25T01:54:44;2.43;;;1.17;;
4011;SDS011;2020;48.682;9.024;2023-04-25T01:57:10;1.47;;;1.10;;
4011;SDS011;2020;48.682;9.024;2023-04-25T01:59:36;3.47;;;1.40;;
4011;SDS011;2020;48.682;9.024;2023-04-25T02:02:01;1.13;;;1.13;;
4011;SDS011;2020;48.682;9.024;2023-04-25T02:04:28;2.17;;;1.23;;
4011;SDS011;2020;48.682;9.024;2023-04-25T02:06:54;1.10;;;1.10;;
4011;SDS011;2020;48.682;9.024;2023-04-25T02:09:19;2.70;;;1.17;;
4011;SDS011;2020;48.682;9.024;2023-04-25T02:11:45;1.90;;;1.80;;
4011;SDS011;2020;48.682;9.024;2023-04-25T02:14:10;3.20;;;1.90;;
4011;SDS011;2020;48.682;9.024;2023-04-25T02:16:35;1.33;;;1.33;;
4011;SDS011;2020;48.682;9.024;2023-04-25T02:19:01;2.00;;;1.90;;
4011;SDS011;2020;48.682;9.024;2023-04-25T02:21:26;2.47;;;2.27;;
4011;SDS011;2020;48.682;9.024;2023-04-25T02:23:52;1.97;;;1.87;;
4011;SDS011;2020;48.682;9.024;2023-04-25T02:26:17;1.33;;;1.23;;
4011;SDS011;2020;48.682;9.024;2023-04-25T02:28:42;1.00;;;1.00;;
4011;SDS011;2020;48.682;9.024;2023-04-25T02:31:08;1.10;;;1.10;;
4011;SDS011;2020;48.682;9.024;2023-04-25T02:33:33;5.40;;;2.40;;
4011;SDS011;2020;48.682;9.024;2023-04-25T02:35:59;1.23;;;1.23;;
4011;SDS011;2020;48.682;9.024;2023-04-25T02:38:24;1.30;;;1.30;;
4011;SDS011;2020;48.682;9.024;2023-04-25T02:40:50;1.53;;;1.53;;
4011;SDS011;2020;48.682;9.024;2023-04-25T02:43:15;1.20;;;1.20;;
4011;SDS011;2020;48.682;9.024;2023-04-25T02:45:41;1.10;;;1.10;;
4011;SDS011;2020;48.682;9.024;2023-04-25T02:48:06;1.40;;;1.30;;
4011;SDS011;2020;48.682;9.024;2023-04-25T02:50:31;1.83;;;1.83;;
4011;SDS011;2020;48.682;9.024;2023-04-25T02:52:57;1.20;;;1.20;;
4011;SDS011;2020;48.682;9.024;2023-04-25T02:55:22;0.90;;;0.90;;
4011;SDS011;2020;48.682;9.024;2023-04-25T02:57:47;1.50;;;1.50;;
4011;SDS011;2020;48.682;9.024;2023-04-25T03:00:12;1.00;;;1.00;;
4011;SDS011;2020;48.682;9.024;2023-04-25T03:02:39;5.90;;;1.50;;
4011;SDS011;2020;48.682;9.024;2023-04-25T03:05:04;1.73;;;1.63;;
4011;SDS011;2020;48.682;9.024;2023-04-25T03:07:30;1.57;;;1.33;;
4011;SDS011;2020;48.682;9.024;2023-04-25T03:09:56;1.10;;;1.10;;
4011;SDS011;2020;48.682;9.024;2023-04-25T03:12:21;1.73;;;1.63;;
4011;SDS011;2020;48.682;9.024;2023-04-25T03:14:47;1.60;;;1.57;;
4011;SDS011;2020;48.682;9.024;2023-04-25T03:17:12;1.20;;;1.20;;
4011;SDS011;2020;48.682;9.024;2023-04-25T03:19:37;1.30;;;1.20;;
4011;SDS011;2020;48.682;9.024;2023-04-25T03:22:02;1.43;;;1.33;;
4011;SDS011;2020;48.682;9.024;2023-04-25T03:24:28;1.37;;;1.27;;
4011;SDS011;2020;48.682;9.024;2023-04-25T03:26:53;1.33;;;1.23;;
4011;SDS011;2020;48.682;9.024;2023-04-25T03:29:18;1.27;;;1.17;;
4011;SDS011;2020;48.682;9.024;2023-04-25T03:31:43;1.33;;;1.23;;
4011;SDS011;2020;48.682;9.024;2023-04-25T03:34:09;2.40;;;2.20;;
4011;SDS011;2020;48.682;9.024;2023-04-25T03:36:34;2.17;;;2.03;;
4011;SDS011;2020;48.682;9.024;2023-04-25T03:38:59;2.00;;;1.90;;
4011;SDS011;2020;48.682;9.024;2023-04-25T03:41:25;1.40;;;1.40;;
4011;SDS011;2020;48.682;9.024;2023-04-25T03:43:50;3.90;;;1.57;;
4011;SDS011;2020;48.682;9.024;2023-04-25T03:46:15;2.70;;;1.40;;
4011;SDS011;2020;48.682;9.024;2023-04-25T03:48:41;2.20;;;2.00;;
4011;SDS011;2020;48.682;9.024;2023-04-25T03:51:06;6.87;;;1.73;;
4011;SDS011;2020;48.682;9.024;2023-04-25T03:53:31;1.00;;;1.00;;
4011;SDS011;2020;48.682;9.024;2023-04-25T03:55:57;1.70;;;1.60;;
4011;SDS011;2020;48.682;9.024;2023-04-25T03:58:22;1.17;;;1.17;;
4011;SDS011;2020;48.682;9.024;2023-04-25T04:00:49;1.43;;;1.33;;
4011;SDS011;2020;48.682;9.024;2023-04-25T04:03:14;2.10;;;2.00;;
4011;SDS011;2020;48.682;9.024;2023-04-25T04:05:39;1.90;;;1.80;;
4011;SDS011;2020;48.682;9.024;2023-04-25T04:08:05;2.63;;;1.60;;
4011;SDS011;2020;48.682;9.024;2023-04-25T04:10:31;2.03;;;1.87;;
4011;SDS011;2020;48.682;9.024;2023-04-25T04:12:56;1.30;;;1.27;;
4011;SDS011;2020;48.682;9.024;2023-04-25T04:15:21;2.80;;;1.30;;
4011;SDS011;2020;48.682;9.024;2023-04-25T04:17:47;1.07;;;1.07;;
4011;SDS011;2020;48.682;9.024;2023-04-25T04:20:13;1.70;;;1.60;;
4011;SDS011;2020;48.682;9.024;2023-04-25T04:22:38;2.57;;;1.70;;
4011;SDS011;2020;48.682;9.024;2023-04-25T04:25:04;1.70;;;1.70;;
4011;SDS011;2020;48.682;9.024;2023-04-25T04:27:30;1.40;;;1.40;;
4011;SDS011;2020;48.682;9.024;2023-04-25T04:29:56;1.90;;;1.90;;
4011;SDS011;2020;48.682;9.024;2023-04-25T04:32:22;1.53;;;1.53;;
4011;SDS011;2020;48.682;9.024;2023-04-25T04:34:48;1.60;;;1.50;;
4011;SDS011;2020;48.682;9.024;2023-04-25T04:37:14;2.10;;;2.00;;
4011;SDS011;2020;48.682;9.024;2023-04-25T04:39:39;1.87;;;1.77;;
4011;SDS011;2020;48.682;9.024;2023-04-25T04:42:05;1.57;;;1.50;;
4011;SDS011;2020;48.682;9.024;2023-04-25T04:44:30;2.63;;;2.43;;
4011;SDS011;2020;48.682;9.024;2023-04-25T04:46:57;2.43;;;2.33;;
4011;SDS011;2020;48.682;9.024;2023-04-25T04:49:23;3.20;;;3.00;;
4011;SDS011;2020;48.682;9.024;2023-04-25T04:51:48;1.60;;;1.60;;
4011;SDS011;2020;48.682;9.024;2023-04-25T04:54:14;1.30;;;1.30;;
4011;SDS011;2020;48.682;9.024;2023-04-25T04:56:40;1.50;;;1.50;;
4011;SDS011;2020;48.682;9.024;2023-04-25T04:59:06;1.60;;;1.60;;
4011;SDS011;2020;48.682;9.024;2023-04-25T05:01:32;2.77;;;1.87;;
4011;SDS011;2020;48.682;9.024;2023-04-25T05:04:00;1.10;;;1.10;;
4011;SDS011;2020;48.682;9.024;2023-04-25T05:06:25;2.87;;;1.60;;
4011;SDS011;2020;48.682;9.024;2023-04-25T05:08:52;1.50;;;1.50;;
4011;SDS011;2020;48.682;9.024;2023-04-25T05:11:20;1.33;;;1.33;;
4011;SDS011;2020;48.682;9.024;2023-04-25T05:13:46;1.83;;;1.83;;
4011;SDS011;2020;48.682;9.024;2023-04-25T05:16:12;2.00;;;1.90;;
4011;SDS011;2020;48.682;9.024;2023-04-25T05:18:38;1.67;;;1.67;;
4011;SDS011;2020;48.682;9.024;2023-04-25T05:21:04;1.93;;;1.83;;
4011;SDS011;2020;48.682;9.024;2023-04-25T05:23:30;2.10;;;2.00;;
4011;SDS011;2020;48.682;9.024;2023-04-25T05:25:57;2.17;;;2.07;;
4011;SDS011;2020;48.682;9.024;2023-04-25T05:28:22;2.73;;;2.53;;
4011;SDS011;2020;48.682;9.024;2023-04-25T05:30:47;2.20;;;2.10;;
4011;SDS011;2020;48.682;9.024;2023-04-25T05:33:13;1.90;;;1.83;;
4011;SDS011;2020;48.682;9.024;2023-04-25T05:35:38;2.00;;;1.90;;
4011;SDS011;2020;48.682;9.024;2023-04-25T05:38:03;2.00;;;1.90;;
4011;SDS011;2020;48.682;9.024;2023-04-25T05:40:29;2.00;;;1.90;;
4011;SDS011;2020;48.682;9.024;2023-04-25T05:42:54;1.83;;;1.50;;
4011;SDS011;2020;48.682;9.024;2023-04-25T05:45:19;1.27;;;1.27;;
4011;SDS011;2020;48.682;9.024;2023-04-25T05:47:44;2.30;;;2.20;;
4011;SDS011;2020;48.682;9.024;2023-04-25T05:50:10;2.60;;;2.50;;
4011;SDS011;2020;48.682;9.024;2023-04-25T05:52:35;4.00;;;2.70;;
4011;SDS011;2020;48.682;9.024;2023-04-25T05:55:00;2.03;;;1.93;;
4011;SDS011;2020;48.682;9.024;2023-04-25T05:57:26;2.10;;;1.60;;
4011;SDS011;2020;48.682;9.024;2023-04-25T05:59:52;2.00;;;1.17;;
4011;SDS011;2020;48.682;9.024;2023-04-25T06:02:18;1.87;;;1.63;;
4011;SDS011;2020;48.682;9.024;2023-04-25T06:04:45;2.60;;;2.50;;
4011;SDS011;2020;48.682;9.024;2023-04-25T06:07:11;1.83;;;1.73;;
4011;SDS011;2020;48.682;9.024;2023-04-25T06:09:36;2.20;;;2.00;;
4011;SDS011;2020;48.682;9.024;2023-04-25T06:12:03;2.00;;;1.50;;
4011;SDS011;2020;48.682;9.024;2023-04-25T06:14:29;2.17;;;1.90;;
4011;SDS011;2020;48.682;9.024;2023-04-25T06:16:55;1.83;;;1.83;;
4011;SDS011;2020;48.682;9.024;2023-04-25T06:19:20;2.13;;;2.03;;
4011;SDS011;2020;48.682;9.024;2023-04-25T06:21:45;1.67;;;1.67;;
4011;SDS011;2020;48.682;9.024;2023-04-25T06:24:11;3.70;;;1.90;;
4011;SDS011;2020;48.682;9.024;2023-04-25T06:26:36;1.40;;;1.40;;
4011;SDS011;2020;48.682;9.024;2023-04-25T06:29:01;2.50;;;2.40;;
4011;SDS011;2020;48.682;9.024;2023-04-25T06:31:27;1.77;;;1.77;;
4011;SDS011;2020;48.682;9.024;2023-04-25T06:33:53;2.10;;;2.10;;
4011;SDS011;2020;48.682;9.024;2023-04-25T06:36:19;1.43;;;1.43;;
4011;SDS011;2020;48.682;9.024;2023-04-25T06:38:49;2.10;;;2.00;;
4011;SDS011;2020;48.682;9.024;2023-04-25T06:41:15;2.67;;;2.47;;
4011;SDS011;2020;48.682;9.024;2023-04-25T06:43:40;1.73;;;1.63;;
4011;SDS011;2020;48.682;9.024;2023-04-25T06:46:05;2.73;;;2.10;;
4011;SDS011;2020;48.682;9.024;2023-04-25T06:48:31;1.87;;;1.77;;
4011;SDS011;2020;48.682;9.024;2023-04-25T06:50:56;2.10;;;1.97;;
4011;SDS011;2020;48.682;9.024;2023-04-25T06:53:21;1.80;;;1.70;;
4011;SDS011;2020;48.682;9.024;2023-04-25T06:55:46;2.50;;;2.40;;
4011;SDS011;2020;48.682;9.024;2023-04-25T06:58:12;2.70;;;2.50;;
4011;SDS011;2020;48.682;9.024;2023-04-25T07:00:37;2.10;;;1.90;;
4011;SDS011;2020;48.682;9.024;2023-04-25T07:03:02;2.17;;;2.10;;
4011;SDS011;2020;48.682;9.024;2023-04-25T07:05:28;1.70;;;1.60;;
4011;SDS011;2020;48.682;9.024;2023-04-25T07:07:53;2.27;;;2.17;;
4011;SDS011;2020;48.682;9.024;2023-04-25T07:10:18;2.17;;;2.07;;
4011;SDS011;2020;48.682;9.024;2023-04-25T07:12:43;1.50;;;1.40;;
4011;SDS011;2020;48.682;9.024;2023-04-25T07:15:09;2.10;;;2.00;;
4011;SDS011;2020;48.682;9.024;2023-04-25T07:17:35;1.97;;;1.87;;
4011;SDS011;2020;48.682;9.024;2023-04-25T07:20:00;1.40;;;1.37;;
4011;SDS011;2020;48.682;9.024;2023-04-25T07:22:26;2.10;;;2.10;;
4011;SDS011;2020;48.682;9.024;2023-04-25T07:24:51;2.30;;;2.20;;
4011;SDS011;2020;48.682;9.024;2023-04-25T07:27:18;2.53;;;2.33;;
4011;SDS011;2020;48.682;9.024;2023-04-25T07:29:43;1.87;;;1.80;;
4011;SDS011;2020;48.682;9.024;2023-04-25T07:32:08;2.23;;;2.03;;
4011;SDS011;2020;48.682;9.024;2023-04-25T07:34:35;2.00;;;1.90;;
4011;SDS011;2020;48.682;9.024;2023-04-25T07:37:02;2.10;;;2.00;;
4011;SDS011;2020;48.682;9.024;2023-04-25T07:39:27;2.87;;;2.77;;
4011;SDS011;2020;48.682;9.024;2023-04-25T07:41:52;2.07;;;2.00;;
4011;SDS011;2020;48.682;9.024;2023-04-25T07:44:18;2.03;;;1.93;;
4011;SDS011;2020;48.682;9.024;2023-04-25T07:46:43;1.80;;;1.70;;
4011;SDS011;2020;48.682;9.024;2023-04-25T07:49:08;1.80;;;1.80;;
4011;SDS011;2020;48.682;9.024;2023-04-25T07:51:35;1.47;;;1.37;;
4011;SDS011;2020;48.682;9.024;2023-04-25T07:54:00;2.07;;;1.97;;
4011;SDS011;2020;48.682;9.024;2023-04-25T07:56:25;5.07;;;2.07;;
4011;SDS011;2020;48.682;9.024;2023-04-25T07:58:50;1.93;;;1.83;;
4011;SDS011;2020;48.682;9.024;2023-04-25T08:01:16;1.80;;;1.70;;
4011;SDS011;2020;48.682;9.024;2023-04-25T08:03:41;2.10;;;2.00;;
4011;SDS011;2020;48.682;9.024;2023-04-25T08:06:06;1.87;;;1.77;;
4011;SDS011;2020;48.682;9.024;2023-04-25T08:08:32;2.73;;;2.53;;
4011;SDS011;2020;48.682;9.024;2023-04-25T08:10:57;2.53;;;1.90;;
4011;SDS011;2020;48.682;9.024;2023-04-25T08:13:22;1.70;;;1.60;;
4011;SDS011;2020;48.682;9.024;2023-04-25T08:15:47;1.80;;;1.70;;
4011;SDS011;2020;48.682;9.024;2023-04-25T08:18:13;2.40;;;2.30;;
4011;SDS011;2020;48.682;9.024;2023-04-25T08:20:38;1.90;;;1.90;;
4011;SDS011;2020;48.682;9.024;2023-04-25T08:23:03;1.70;;;1.70;;
4011;SDS011;2020;48.682;9.024;2023-04-25T08:25:29;2.13;;;2.03;;
4011;SDS011;2020;48.682;9.024;2023-04-25T08:27:54;2.27;;;2.17;;
4011;SDS011;2020;48.682;9.024;2023-04-25T08:30:20;2.27;;;2.17;;
4011;SDS011;2020;48.682;9.024;2023-04-25T08:32:46;1.93;;;1.77;;
4011;SDS011;2020;48.682;9.024;2023-04-25T08:35:11;2.47;;;2.37;;
4011;SDS011;2020;48.682;9.024;2023-04-25T08:37:37;2.10;;;2.00;;
4011;SDS011;2020;48.682;9.024;2023-04-25T08:40:03;1.90;;;1.70;;
4011;SDS011;2020;48.682;9.024;2023-04-25T08:42:31;2.10;;;2.00;;
4011;SDS011;2020;48.682;9.024;2023-04-25T08:44:59;2.10;;;1.97;;
4011;SDS011;2020;48.682;9.024;2023-04-25T08:47:28;2.17;;;2.07;;
4011;SDS011;2020;48.682;9.024;2023-04-25T08:49:54;1.57;;;1.57;;
4011;SDS011;2020;48.682;9.024;2023-04-25T08:52:21;2.20;;;2.00;;
4011;SDS011;2020;48.682;9.024;2023-04-25T08:54:48;1.90;;;1.90;;
4011;SDS011;2020;48.682;9.024;2023-04-25T08:57:14;3.23;;;2.80;;
4011;SDS011;2020;48.682;9.024;2023-04-25T08:59:40;1.70;;;1.70;;
4011;SDS011;2020;48.682;9.024;2023-04-25T09:02:10;1.73;;;1.63;;
4011;SDS011;2020;48.682;9.024;2023-04-25T09:04:39;2.10;;;2.00;;
4011;SDS011;2020;48.682;9.024;2023-04-25T09:07:04;2.27;;;2.17;;
4011;SDS011;2020;48.682;9.024;2023-04-25T09:09:30;1.60;;;1.50;;
4011;SDS011;2020;48.682;9.024;2023-04-25T09:11:55;1.90;;;1.80;;
4011;SDS011;2020;48.682;9.024;2023-04-25T09:14:22;1.83;;;1.73;;
4011;SDS011;2020;48.682;9.024;2023-04-25T09:19:23;2.07;;;1.97;;
4011;SDS011;2020;48.682;9.024;2023-04-25T09:21:50;2.37;;;2.20;;
4011;SDS011;2020;48.682;9.024;2023-04-25T09:24:16;2.23;;;2.13;;
4011;SDS011;2020;48.682;9.024;2023-04-25T09:26:44;3.20;;;2.50;;
4011;SDS011;2020;48.682;9.024;2023-04-25T09:29:09;1.60;;;1.50;;
4011;SDS011;2020;48.682;9.024;2023-04-25T09:31:35;1.70;;;1.60;;
4011;SDS011;2020;48.682;9.024;2023-04-25T09:34:01;1.93;;;1.87;;
4011;SDS011;2020;48.682;9.024;2023-04-25T09:36:27;1.30;;;1.20;;
4011;SDS011;2020;48.682;9.024;2023-04-25T09:38:53;1.20;;;1.20;;
4011;SDS011;2020;48.682;9.024;2023-04-25T09:41:22;1.67;;;1.57;;
4011;SDS011;2020;48.682;9.024;2023-04-25T09:43:48;1.07;;;1.07;;
4011;SDS011;2020;48.682;9.024;2023-04-25T09:46:14;0.70;;;0.70;;
4011;SDS011;2020;48.682;9.024;2023-04-25T09:48:40;1.00;;;1.00;;
4011;SDS011;2020;48.682;9.024;2023-04-25T09:51:14;0.67;;;0.67;;
4011;SDS011;2020;48.682;9.024;2023-04-25T09:53:40;0.70;;;0.70;;
4011;SDS011;2020;48.682;9.024;2023-04-25T09:56:11;0.60;;;0.60;;
4011;SDS011;2020;48.682;9.024;2023-04-25T09:58:37;0.80;;;0.80;;
4011;SDS011;2020;48.682;9.024;2023-04-25T10:01:05;1.03;;;0.70;;
4011;SDS011;2020;48.682;9.024;2023-04-25T10:03:33;0.50;;;0.50;;
4011;SDS011;2020;48.682;9.024;2023-04-25T10:06:01;0.50;;;0.47;;
4011;SDS011;2020;48.682;9.024;2023-04-25T10:08:31;0.50;;;0.50;;
4011;SDS011;2020;48.682;9.024;2023-04-25T10:11:01;0.70;;;0.70;;
4011;SDS011;2020;48.682;9.024;2023-04-25T10:13:29;0.50;;;0.50;;
4011;SDS011;2020;48.682;9.024;2023-04-25T10:15:56;0.40;;;0.40;;
4011;SDS011;2020;48.682;9.024;2023-04-25T10:18:23;0.40;;;0.40;;
4011;SDS011;2020;48.682;9.024;2023-04-25T10:20:50;0.40;;;0.40;;
4011;SDS011;2020;48.682;9.024;2023-04-25T10:23:15;0.47;;;0.47;;
4011;SDS011;2020;48.682;9.024;2023-04-25T10:25:41;0.50;;;0.50;;
4011;SDS011;2020;48.682;9.024;2023-04-25T10:28:07;0.40;;;0.40;;
4011;SDS011;2020;48.682;9.024;2023-04-25T10:30:32;0.40;;;0.40;;
4011;SDS011;2020;48.682;9.024;2023-04-25T10:32:58;0.40;;;0.40;;
4011;SDS011;2020;48.682;9.024;2023-04-25T10:38:03;0.40;;;0.40;;
4011;SDS011;2020;48.682;9.024;2023-04-25T10:40:30;0.40;;;0.40;;
4011;SDS011;2020;48.682;9.024;2023-04-25T10:42:57;0.40;;;0.40;;
4011;SDS011;2020;48.682;9.024;2023-04-25T10:45:56;0.50;;;0.50;;
4011;SDS011;2020;48.682;9.024;2023-04-25T10:48:28;0.40;;;0.40;;
4011;SDS011;2020;48.682;9.024;2023-04-25T10:51:10;0.50;;;0.50;;
4011;SDS011;2020;48.682;9.024;2023-04-25T10:53:37;0.50;;;0.50;;
4011;SDS011;2020;48.682;9.024;2023-04-25T10:56:18;0.40;;;0.40;;
4011;SDS011;2020;48.682;9.024;2023-04-25T10:58:45;0.40;;;0.40;;
4011;SDS011;2020;48.682;9.024;2023-04-25T11:01:11;0.40;;;0.40;;
4011;SDS011;2020;48.682;9.024;2023-04-25T11:03:40;0.40;;;0.40;;
4011;SDS011;2020;48.682;9.024;2023-04-25T11:06:10;0.50;;;0.50;;
4011;SDS011;2020;48.682;9.024;2023-04-25T11:08:57;0.50;;;0.50;;
4011;SDS011;2020;48.682;9.024;2023-04-25T11:11:26;0.47;;;0.47;;
4011;SDS011;2020;48.682;9.024;2023-04-25T11:13:53;0.40;;;0.40;;
4011;SDS011;2020;48.682;9.024;2023-04-25T11:16:19;0.60;;;0.60;;
4011;SDS011;2020;48.682;9.024;2023-04-25T11:18:44;0.47;;;0.47;;
4011;SDS011;2020;48.682;9.024;2023-04-25T11:21:10;0.40;;;0.40;;
4011;SDS011;2020;48.682;9.024;2023-04-25T11:23:36;0.40;;;0.40;;
4011;SDS011;2020;48.682;9.024;2023-04-25T11:26:02;0.50;;;0.50;;
4011;SDS011;2020;48.682;9.024;2023-04-25T11:28:28;0.50;;;0.50;;
4011;SDS011;2020;48.682;9.024;2023-04-25T11:30:53;0.40;;;0.40;;
4011;SDS011;2020;48.682;9.024;2023-04-25T11:33:22;0.53;;;0.53;;
4011;SDS011;2020;48.682;9.024;2023-04-25T11:35:49;0.80;;;0.80;;
4011;SDS011;2020;48.682;9.024;2023-04-25T11:38:14;0.80;;;0.80;;
4011;SDS011;2020;48.682;9.024;2023-04-25T11:40:39;0.70;;;0.70;;
4011;SDS011;2020;48.682;9.024;2023-04-25T11:43:05;1.10;;;0.90;;
4011;SDS011;2020;48.682;9.024;2023-04-25T11:45:30;0.60;;;0.60;;
4011;SDS011;2020;48.682;9.024;2023-04-25T11:47:56;0.60;;;0.60;;
4011;SDS011;2020;48.682;9.024;2023-04-25T11:50:21;1.07;;;1.07;;
4011;SDS011;2020;48.682;9.024;2023-04-25T11:52:47;0.73;;;0.73;;
4011;SDS011;2020;48.682;9.024;2023-04-25T11:55:13;1.00;;;1.00;;
4011;SDS011;2020;48.682;9.024;2023-04-25T11:57:44;0.60;;;0.60;;
4011;SDS011;2020;48.682;9.024;2023-04-25T12:00:12;1.77;;;1.67;;
4011;SDS011;2020;48.682;9.024;2023-04-25T12:02:40;0.97;;;0.97;;
4011;SDS011;2020;48.682;9.024;2023-04-25T12:05:07;0.80;;;0.80;;
4011;SDS011;2020;48.682;9.024;2023-04-25T12:07:33;0.93;;;0.90;;
4011;SDS011;2020;48.682;9.024;2023-04-25T12:09:58;1.13;;;1.13;;
4011;SDS011;2020;48.682;9.024;2023-04-25T12:12:27;1.23;;;1.23;;
4011;SDS011;2020;48.682;9.024;2023-04-25T12:14:57;0.80;;;0.80;;
4011;SDS011;2020;48.682;9.024;2023-04-25T12:17:44;1.00;;;1.00;;
4011;SDS011;2020;48.682;9.024;2023-04-25T12:20:17;1.23;;;1.23;;
4011;SDS011;2020;48.682;9.024;2023-04-25T12:22:51;1.17;;;1.17;;
4011;SDS011;2020;48.682;9.024;2023-04-25T12:30:52;2.37;;;2.27;;
4011;SDS011;2020;48.682;9.024;2023-04-25T12:33:17;1.73;;;1.63;;
4011;SDS011;2020;48.682;9.024;2023-04-25T12:35:42;2.00;;;1.90;;
4011;SDS011;2020;48.682;9.024;2023-04-25T12:38:08;1.83;;;1.80;;
4011;SDS011;2020;48.682;9.024;2023-04-25T12:40:33;2.17;;;2.07;;
4011;SDS011;2020;48.682;9.024;2023-04-25T12:42:58;2.40;;;2.20;;
4011;SDS011;2020;48.682;9.024;2023-04-25T12:45:24;2.40;;;2.20;;
4011;SDS011;2020;48.682;9.024;2023-04-25T12:47:49;1.40;;;1.40;;
4011;SDS011;2020;48.682;9.024;2023-04-25T12:50:14;2.43;;;2.33;;
4011;SDS011;2020;48.682;9.024;2023-04-25T12:52:39;2.63;;;2.43;;
4011;SDS011;2020;48.682;9.024;2023-04-25T12:55:05;2.50;;;1.97;;
4011;SDS011;2020;48.682;9.024;2023-04-25T12:57:30;2.50;;;2.30;;
4011;SDS011;2020;48.682;9.024;2023-04-25T12:59:56;2.77;;;2.57;;
4011;SDS011;2020;48.682;9.024;2023-04-25T13:02:21;2.33;;;2.13;;
4011;SDS011;2020;48.682;9.024;2023-04-25T13:04:46;2.47;;;2.37;;
4011;SDS011;2020;48.682;9.024;2023-04-25T13:07:12;2.60;;;2.40;;
4011;SDS011;2020;48.682;9.024;2023-04-25T13:09:37;3.00;;;2.80;;
4011;SDS011;2020;48.682;9.024;2023-04-25T13:12:03;2.77;;;2.57;;
4011;SDS011;2020;48.682;9.024;2023-04-25T13:14:29;3.63;;;3.33;;
4011;SDS011;2020;48.682;9.024;2023-04-25T13:16:54;7.40;;;2.90;;
4011;SDS011;2020;48.682;9.024;2023-04-25T13:19:19;2.50;;;2.40;;
4011;SDS011;2020;48.682;9.024;2023-04-25T13:21:45;3.87;;;3.57;;
4011;SDS011;2020;48.682;9.024;2023-04-25T13:24:10;4.20;;;3.80;;
4011;SDS011;2020;48.682;9.024;2023-04-25T13:26:35;3.53;;;3.27;;
4011;SDS011;2020;48.682;9.024;2023-04-25T13:29:01;5.90;;;3.03;;
4011;SDS011;2020;48.682;9.024;2023-04-25T13:31:28;3.13;;;2.90;;
4011;SDS011;2020;48.682;9.024;2023-04-25T13:33:53;4.20;;;3.80;;
4011;SDS011;2020;48.682;9.024;2023-04-25T13:36:19;3.30;;;3.10;;
4011;SDS011;2020;48.682;9.024;2023-04-25T13:38:44;3.47;;;3.17;;
4011;SDS011;2020;48.682;9.024;2023-04-25T13:41:12;3.63;;;3.20;;
4011;SDS011;2020;48.682;9.024;2023-04-25T13:43:42;2.90;;;2.70;;
4011;SDS011;2020;48.682;9.024;2023-04-25T13:46:07;3.30;;;3.10;;
4011;SDS011;2020;48.682;9.024;2023-04-25T13:48:33;4.07;;;3.67;;
4011;SDS011;2020;48.682;9.024;2023-04-25T13:50:58;4.73;;;4.17;;
4011;SDS011;2020;48.682;9.024;2023-04-25T13:53:23;3.20;;;3.10;;
4011;SDS011;2020;48.682;9.024;2023-04-25T13:55:49;3.83;;;3.53;;
4011;SDS011;2020;48.682;9.024;2023-04-25T13:58:14;3.73;;;3.50;;
4011;SDS011;2020;48.682;9.024;2023-04-25T14:00:40;4.77;;;4.37;;
4011;SDS011;2020;48.682;9.024;2023-04-25T14:03:08;3.57;;;3.37;;
4011;SDS011;2020;48.682;9.024;2023-04-25T14:05:34;3.00;;;2.80;;
4011;SDS011;2020;48.682;9.024;2023-04-25T14:08:07;3.70;;;3.53;;
4011;SDS011;2020;48.682;9.024;2023-04-25T14:10:33;4.70;;;3.50;;
4011;SDS011;2020;48.682;9.024;2023-04-25T14:12:59;4.90;;;4.30;;
4011;SDS011;2020;48.682;9.024;2023-04-25T14:15:25;5.63;;;5.00;;
4011;SDS011;2020;48.682;9.024;2023-04-25T14:17:51;3.90;;;3.57;;
4011;SDS011;2020;48.682;9.024;2023-04-25T14:20:16;4.23;;;4.03;;
4011;SDS011;2020;48.682;9.024;2023-04-25T14:22:45;4.20;;;3.80;;
4011;SDS011;2020;48.682;9.024;2023-04-25T14:25:10;4.27;;;3.77;;
4011;SDS011;2020;48.682;9.024;2023-04-25T14:27:35;4.03;;;3.80;;
4011;SDS011;2020;48.682;9.024;2023-04-25T14:30:01;2.97;;;2.87;;
4011;SDS011;2020;48.682;9.024;2023-04-25T14:32:26;4.63;;;4.27;;
4011;SDS011;2020;48.682;9.024;2023-04-25T14:34:51;3.60;;;3.40;;
4011;SDS011;2020;48.682;9.024;2023-04-25T14:37:17;3.30;;;3.00;;
4011;SDS011;2020;48.682;9.024;2023-04-25T14:39:42;2.93;;;2.83;;
4011;SDS011;2020;48.682;9.024;2023-04-25T14:42:07;3.27;;;2.97;;
4011;SDS011;2020;48.682;9.024;2023-04-25T14:44:32;6.13;;;2.63;;
4011;SDS011;2020;48.682;9.024;2023-04-25T14:46:58;3.00;;;2.90;;
4011;SDS011;2020;48.682;9.024;2023-04-25T14:49:23;2.60;;;2.50;;
4011;SDS011;2020;48.682;9.024;2023-04-25T14:51:48;2.63;;;2.40;;
4011;SDS011;2020;48.682;9.024;2023-04-25T14:54:14;2.77;;;2.57;;
4011;SDS011;2020;48.682;9.024;2023-04-25T14:56:40;2.50;;;2.30;;
4011;SDS011;2020;48.682;9.024;2023-04-25T14:59:05;5.47;;;2.70;;
4011;SDS011;2020;48.682;9.024;2023-04-25T15:01:31;2.67;;;2.57;;
4011;SDS011;2020;48.682;9.024;2023-04-25T15:03:56;1.83;;;1.73;;
4011;SDS011;2020;48.682;9.024;2023-04-25T15:06:22;2.20;;;2.10;;
4011;SDS011;2020;48.682;9.024;2023-04-25T15:08:51;2.23;;;2.13;;
4011;SDS011;2020;48.682;9.024;2023-04-25T15:11:16;2.17;;;2.07;;
4011;SDS011;2020;48.682;9.024;2023-04-25T15:13:41;2.17;;;2.07;;
4011;SDS011;2020;48.682;9.024;2023-04-25T15:16:07;2.57;;;2.37;;
4011;SDS011;2020;48.682;9.024;2023-04-25T15:18:33;2.23;;;2.13;;